Time,TemperatureF,DewpointF,PressureIn,WindDirection,WindDirectionDegrees,WindSpeedMPH,WindSpeedGustMPH,Humidity,HourlyPrecipIn,Conditions,Clouds,dailyrainin,SoftwareType,DateUTC
2013-01-09 00:02:00,32.0,18.0,-100.00,WSW,255,24.0,32.0,57,-99.99,,,-99.99,,2013-01-09 07:02:00,
2013-01-09 00:12:00,31.0,18.0,-100.00,WSW,255,21.0,32.0,57,-99.99,,,-99.99,,2013-01-09 07:12:00,
2013-01-09 00:22:00,31.0,18.0,-100.00,West,260,26.0,34.0,56,-99.99,,,-99.99,,2013-01-09 07:22:00,
2013-01-09 00:32:00,31.0,17.0,-100.00,WSW,255,24.0,31.0,57,-99.99,,,-99.99,,2013-01-09 07:32:00,
2013-01-09 00:42:00,30.0,17.0,-100.00,WSW,250,21.0,30.0,58,-99.99,,,-99.99,,2013-01-09 07:42:00,
2013-01-09 00:52:00,30.0,17.0,-100.00,WSW,255,24.0,32.0,58,-99.99,,,-99.99,,2013-01-09 07:52:00,
2013-01-09 01:02:00,30.0,17.0,-100.00,WSW,255,22.0,29.0,58,-99.99,,,-99.99,,2013-01-09 08:02:00,
2013-01-09 01:12:00,30.0,17.0,-100.00,WSW,255,21.0,32.0,59,-99.99,,,-99.99,,2013-01-09 08:12:00,
2013-01-09 01:22:00,29.0,17.0,-100.00,West,270,24.0,35.0,60,-99.99,,,-99.99,,2013-01-09 08:22:00,
2013-01-09 01:32:00,28.0,17.0,-100.00,West,265,26.0,36.0,62,-99.99,,,-99.99,,2013-01-09 08:32:00,
2013-01-09 01:42:00,28.0,17.0,-100.00,West,265,27.0,36.0,63,-99.99,,,-99.99,,2013-01-09 08:42:00,
2013-01-09 01:52:00,27.0,17.0,-100.00,West,270,27.0,35.0,65,-99.99,,,-99.99,,2013-01-09 08:52:00,
2013-01-09 02:02:00,27.0,17.0,-100.00,West,270,24.0,32.0,65,-99.99,,,-99.99,,2013-01-09 09:02:00,
2013-01-09 02:12:00,27.0,17.0,-100.00,West,265,24.0,30.0,66,-99.99,,,-99.99,,2013-01-09 09:12:00,
2013-01-09 02:22:00,27.0,17.0,-100.00,WSW,255,24.0,31.0,66,-99.99,,,-99.99,,2013-01-09 09:22:00,
2013-01-09 02:32:00,27.0,17.0,-100.00,WSW,255,24.0,31.0,66,-99.99,,,-99.99,,2013-01-09 09:32:00,
2013-01-09 02:42:00,27.0,17.0,-100.00,WSW,255,21.0,31.0,66,-99.99,,,-99.99,,2013-01-09 09:42:00,
2013-01-09 02:53:00,27.0,17.0,-100.00,WSW,250,16.0,22.0,67,-99.99,,,-99.99,,2013-01-09 09:53:00,
2013-01-09 03:02:00,25.0,16.0,-100.00,NW,310,8.0,17.0,69,-99.99,,,-99.99,,2013-01-09 10:02:00,
2013-01-09 03:11:00,24.0,16.0,-100.00,NW,310,7.0,12.0,71,-99.99,,,-99.99,,2013-01-09 10:11:00,
2013-01-09 03:22:00,25.0,17.0,-100.00,WNW,300,7.0,14.0,69,-99.99,,,-99.99,,2013-01-09 10:22:00,
2013-01-09 03:32:00,24.0,16.0,-100.00,NNW,330,4.0,11.0,70,-99.99,,,-99.99,,2013-01-09 10:32:00,
2013-01-09 03:42:00,23.0,15.0,-100.00,North,0,4.0,9.0,71,-99.99,,,-99.99,,2013-01-09 10:42:00,
2013-01-09 03:52:00,24.0,16.0,-100.00,NNE,25,6.0,9.0,73,-99.99,,,-99.99,,2013-01-09 10:52:00,
2013-01-09 04:02:00,25.0,17.0,-100.00,WNW,285,2.0,6.0,70,-99.99,,,-99.99,,2013-01-09 11:02:00,
2013-01-09 04:12:00,26.0,17.0,-100.00,WNW,285,4.0,6.0,69,-99.99,,,-99.99,,2013-01-09 11:12:00,
2013-01-09 04:22:00,25.0,16.0,-100.00,NW,320,8.0,13.0,69,-99.99,,,-99.99,,2013-01-09 11:22:00,
2013-01-09 04:32:00,21.0,15.0,-100.00,NW,315,10.0,12.0,75,-99.99,,,-99.99,,2013-01-09 11:32:00,
2013-01-09 04:42:00,20.0,14.0,-100.00,NW,305,9.0,12.0,76,-99.99,,,-99.99,,2013-01-09 11:42:00,
2013-01-09 04:52:00,21.0,15.0,-100.00,North,355,7.0,11.0,77,-99.99,,,-99.99,,2013-01-09 11:52:00,
2013-01-09 05:03:00,21.0,15.0,-100.00,North,0,13.0,16.0,78,-99.99,,,-99.99,,2013-01-09 12:03:00,
2013-01-09 05:12:00,21.0,15.0,-100.00,North,350,11.0,16.0,79,-99.99,,,-99.99,,2013-01-09 12:12:00,
2013-01-09 05:23:00,22.0,16.0,-100.00,NNW,340,12.0,17.0,78,-99.99,,,-99.99,,2013-01-09 12:23:00,
2013-01-09 05:33:00,22.0,16.0,-100.00,NNW,345,12.0,16.0,78,-99.99,,,-99.99,,2013-01-09 12:33:00,
2013-01-09 05:42:00,21.0,16.0,-100.00,NNW,330,11.0,16.0,78,-99.99,,,-99.99,,2013-01-09 12:42:00,
2013-01-09 05:52:00,22.0,17.0,-100.00,NW,310,10.0,15.0,77,-99.99,,,-99.99,,2013-01-09 12:52:00,
2013-01-09 06:02:00,22.0,16.0,-100.00,WNW,295,9.0,12.0,77,-99.99,,,-99.99,,2013-01-09 13:02:00,
2013-01-09 06:12:00,22.0,16.0,-100.00,NW,305,10.0,12.0,76,-99.99,,,-99.99,,2013-01-09 13:12:00,
2013-01-09 06:22:00,22.0,15.0,-100.00,NW,315,6.0,11.0,76,-99.99,,,-99.99,,2013-01-09 13:22:00,
2013-01-09 06:33:00,23.0,16.0,-100.00,North,0,6.0,10.0,75,-99.99,,,-99.99,,2013-01-09 13:33:00,
2013-01-09 06:42:00,23.0,17.0,-100.00,NNW,335,5.0,10.0,75,-99.99,,,-99.99,,2013-01-09 13:42:00,
2013-01-09 06:52:00,24.0,17.0,-100.00,NW,310,7.0,10.0,71,-99.99,,,-99.99,,2013-01-09 13:52:00,
2013-01-09 07:03:00,24.0,16.0,-100.00,NW,310,6.0,10.0,70,-99.99,,,-99.99,,2013-01-09 14:03:00,
2013-01-09 07:12:00,31.0,19.0,-100.00,WNW,290,11.0,22.0,61,-99.99,,,-99.99,,2013-01-09 14:12:00,
2013-01-09 07:22:00,29.0,17.0,-100.00,NW,325,12.0,18.0,59,-99.99,,,-99.99,,2013-01-09 14:22:00,
2013-01-09 07:33:00,29.0,17.0,-100.00,NW,305,14.0,30.0,60,-99.99,,,-99.99,,2013-01-09 14:33:00,
2013-01-09 07:43:00,32.0,18.0,-100.00,WNW,300,14.0,30.0,56,-99.99,,,-99.99,,2013-01-09 14:43:00,
2013-01-09 07:53:00,31.0,17.0,-100.00,WNW,290,11.0,22.0,55,-99.99,,,-99.99,,2013-01-09 14:53:00,
2013-01-09 08:03:00,32.0,17.0,-100.00,WNW,285,15.0,22.0,53,-99.99,,,-99.99,,2013-01-09 15:03:00,
2013-01-09 08:12:00,33.0,17.0,-100.00,West,270,13.0,22.0,51,-99.99,,,-99.99,,2013-01-09 15:12:00,
2013-01-09 08:22:00,35.0,17.0,-100.00,WSW,245,15.0,24.0,47,-99.99,,,-99.99,,2013-01-09 15:22:00,
2013-01-09 08:33:00,36.0,17.0,-100.00,WSW,255,9.0,17.0,45,-99.99,,,-99.99,,2013-01-09 15:33:00,
2013-01-09 08:42:00,37.0,17.0,-100.00,WSW,245,9.0,16.0,43,-99.99,,,-99.99,,2013-01-09 15:42:00,
2013-01-09 08:53:00,37.0,17.0,-100.00,SSE,160,0.0,10.0,42,-99.99,,,-99.99,,2013-01-09 15:53:00,
2013-01-09 09:03:00,37.0,17.0,-100.00,West,270,6.0,7.0,42,-99.99,,,-99.99,,2013-01-09 16:03:00,
2013-01-09 09:12:00,36.0,16.0,-100.00,West,265,11.0,12.0,42,-99.99,,,-99.99,,2013-01-09 16:12:00,
2013-01-09 09:22:00,36.0,16.0,-100.00,West,265,13.0,15.0,43,-99.99,,,-99.99,,2013-01-09 16:22:00,
2013-01-09 09:33:00,36.0,16.0,-100.00,West,265,9.0,13.0,43,-99.99,,,-99.99,,2013-01-09 16:33:00,
2013-01-09 09:42:00,36.0,17.0,-100.00,West,260,7.0,11.0,44,-99.99,,,-99.99,,2013-01-09 16:42:00,
2013-01-09 09:52:00,36.0,17.0,-100.00,West,265,11.0,14.0,45,-99.99,,,-99.99,,2013-01-09 16:52:00,
2013-01-09 10:02:00,37.0,18.0,-100.00,West,265,12.0,16.0,44,-99.99,,,-99.99,,2013-01-09 17:02:00,
2013-01-09 10:12:00,38.0,18.0,-100.00,WNW,285,7.0,16.0,44,-99.99,,,-99.99,,2013-01-09 17:12:00,
2013-01-09 10:22:00,39.0,20.0,-100.00,NNW,330,4.0,9.0,45,-99.99,,,-99.99,,2013-01-09 17:22:00,
2013-01-09 10:32:00,39.0,20.0,-100.00,WNW,300,3.0,6.0,45,-99.99,,,-99.99,,2013-01-09 17:32:00,
2013-01-09 10:43:00,40.0,20.0,-100.00,WNW,290,5.0,6.0,43,-99.99,,,-99.99,,2013-01-09 17:43:00,
2013-01-09 10:53:00,40.0,20.0,-100.00,SW,220,6.0,7.0,43,-99.99,,,-99.99,,2013-01-09 17:53:00,
2013-01-09 11:03:00,41.0,20.0,-100.00,SSE,150,6.0,12.0,42,-99.99,,,-99.99,,2013-01-09 18:03:00,
2013-01-09 11:12:00,40.0,19.0,-100.00,SSE,150,8.0,12.0,42,-99.99,,,-99.99,,2013-01-09 18:12:00,
2013-01-09 11:33:00,40.0,19.0,-100.00,SE,140,9.0,13.0,42,-99.99,,,-99.99,,2013-01-09 18:33:00,
2013-01-09 11:43:00,41.0,19.0,-100.00,SSE,150,7.0,13.0,42,-99.99,,,-99.99,,2013-01-09 18:43:00,
2013-01-09 11:53:00,41.0,19.0,-100.00,SE,140,9.0,12.0,41,-99.99,,,-99.99,,2013-01-09 18:53:00,
2013-01-09 12:03:00,40.0,18.0,-100.00,SE,140,12.0,14.0,41,-99.99,,,-99.99,,2013-01-09 19:03:00,
2013-01-09 12:12:00,41.0,19.0,-100.00,SSE,155,9.0,15.0,41,-99.99,,,-99.99,,2013-01-09 19:12:00,
2013-01-09 12:22:00,40.0,19.0,-100.00,SE,135,11.0,14.0,42,-99.99,,,-99.99,,2013-01-09 19:22:00,
2013-01-09 12:33:00,39.0,19.0,-100.00,SE,135,10.0,15.0,43,-99.99,,,-99.99,,2013-01-09 19:33:00,
2013-01-09 12:43:00,40.0,20.0,-100.00,SE,140,9.0,12.0,43,-99.99,,,-99.99,,2013-01-09 19:43:00,
2013-01-09 12:52:00,41.0,20.0,-100.00,SE,145,9.0,12.0,43,-99.99,,,-99.99,,2013-01-09 19:52:00,
2013-01-09 13:02:00,41.0,20.0,-100.00,SE,135,9.0,11.0,42,-99.99,,,-99.99,,2013-01-09 20:02:00,
2013-01-09 13:12:00,42.0,20.0,-100.00,SE,145,7.0,11.0,42,-99.99,,,-99.99,,2013-01-09 20:12:00,
2013-01-09 13:22:00,42.0,21.0,-100.00,SSE,150,4.0,9.0,41,-99.99,,,-99.99,,2013-01-09 20:22:00,
2013-01-09 13:33:00,44.0,21.0,-100.00,SSE,165,6.0,8.0,39,-99.99,,,-99.99,,2013-01-09 20:33:00,
2013-01-09 13:42:00,45.0,21.0,-100.00,SE,130,6.0,8.0,37,-99.99,,,-99.99,,2013-01-09 20:42:00,
2013-01-09 13:52:00,45.0,21.0,-100.00,South,170,6.0,9.0,37,-99.99,,,-99.99,,2013-01-09 20:52:00,
2013-01-09 14:03:00,44.0,20.0,-100.00,SE,140,7.0,11.0,37,-99.99,,,-99.99,,2013-01-09 21:03:00,
2013-01-09 14:12:00,45.0,21.0,-100.00,South,180,7.0,11.0,37,-99.99,,,-99.99,,2013-01-09 21:12:00,
2013-01-09 14:22:00,46.0,21.0,-100.00,SSE,165,4.0,8.0,37,-99.99,,,-99.99,,2013-01-09 21:22:00,
2013-01-09 14:33:00,46.0,21.0,-100.00,SSE,155,6.0,9.0,36,-99.99,,,-99.99,,2013-01-09 21:33:00,
2013-01-09 14:43:00,44.0,20.0,-100.00,SE,135,9.0,12.0,37,-99.99,,,-99.99,,2013-01-09 21:43:00,
2013-01-09 14:52:00,45.0,20.0,-100.00,SE,140,7.0,12.0,37,-99.99,,,-99.99,,2013-01-09 21:52:00,
2013-01-09 15:03:00,45.0,20.0,-100.00,SE,130,6.0,9.0,37,-99.99,,,-99.99,,2013-01-09 22:03:00,
2013-01-09 15:12:00,44.0,20.0,-100.00,ESE,115,8.0,9.0,37,-99.99,,,-99.99,,2013-01-09 22:12:00,
2013-01-09 15:22:00,44.0,20.0,-100.00,SE,125,7.0,9.0,37,-99.99,,,-99.99,,2013-01-09 22:22:00,
2013-01-09 15:33:00,44.0,20.0,-100.00,SSE,150,4.0,7.0,37,-99.99,,,-99.99,,2013-01-09 22:33:00,
2013-01-09 15:42:00,45.0,20.0,-100.00,South,180,5.0,7.0,37,-99.99,,,-99.99,,2013-01-09 22:42:00,
2013-01-09 15:52:00,45.0,20.0,-100.00,South,170,4.0,6.0,36,-99.99,,,-99.99,,2013-01-09 22:52:00,
2013-01-09 16:02:00,45.0,20.0,-100.00,South,180,5.0,6.0,36,-99.99,,,-99.99,,2013-01-09 23:02:00,
2013-01-09 16:12:00,46.0,20.0,-100.00,South,180,1.0,5.0,36,-99.99,,,-99.99,,2013-01-09 23:12:00,
2013-01-09 16:22:00,46.0,20.0,-100.00,South,175,2.0,2.0,35,-99.99,,,-99.99,,2013-01-09 23:22:00,
2013-01-09 16:33:00,46.0,20.0,-100.00,South,175,0.0,2.0,35,-99.99,,,-99.99,,2013-01-09 23:33:00,
2013-01-09 16:43:00,46.0,20.0,-100.00,SSE,160,1.0,1.0,35,-99.99,,,-99.99,,2013-01-09 23:43:00,
2013-01-09 16:52:00,44.0,19.0,-100.00,SE,125,0.0,2.0,35,-99.99,,,-99.99,,2013-01-09 23:52:00,
2013-01-09 17:03:00,42.0,17.0,-100.00,SE,125,0.0,1.0,37,-99.99,,,-99.99,,2013-01-10 00:03:00,
2013-01-09 17:12:00,40.0,17.0,-100.00,ESE,120,0.0,3.0,37,-99.99,,,-99.99,,2013-01-10 00:12:00,
2013-01-09 17:22:00,39.0,17.0,-100.00,SSW,200,1.0,2.0,39,-99.99,,,-99.99,,2013-01-10 00:22:00,
2013-01-09 17:32:00,39.0,17.0,-100.00,SSW,210,0.0,2.0,39,-99.99,,,-99.99,,2013-01-10 00:32:00,
2013-01-09 17:42:00,39.0,17.0,-100.00,NW,310,1.0,2.0,39,-99.99,,,-99.99,,2013-01-10 00:42:00,
2013-01-09 17:52:00,39.0,16.0,-100.00,North,0,1.0,5.0,39,-99.99,,,-99.99,,2013-01-10 00:52:00,
2013-01-09 18:02:00,37.0,15.0,-100.00,South,180,2.0,3.0,40,-99.99,,,-99.99,,2013-01-10 01:02:00,
2013-01-09 18:12:00,36.0,15.0,-100.00,SSE,160,4.0,6.0,41,-99.99,,,-99.99,,2013-01-10 01:12:00,
2013-01-09 18:22:00,34.0,15.0,-100.00,ESE,110,4.0,5.0,43,-99.99,,,-99.99,,2013-01-10 01:22:00,
2013-01-09 18:33:00,35.0,15.0,-100.00,SSE,165,2.0,4.0,43,-99.99,,,-99.99,,2013-01-10 01:33:00,
2013-01-09 18:42:00,35.0,15.0,-100.00,South,170,3.0,4.0,43,-99.99,,,-99.99,,2013-01-10 01:42:00,
2013-01-09 18:52:00,37.0,16.0,-100.00,SW,220,4.0,6.0,41,-99.99,,,-99.99,,2013-01-10 01:52:00,
2013-01-09 19:03:00,40.0,17.0,-100.00,SSW,210,7.0,9.0,37,-99.99,,,-99.99,,2013-01-10 02:03:00,
2013-01-09 19:12:00,41.0,16.0,-100.00,SSW,200,6.0,10.0,36,-99.99,,,-99.99,,2013-01-10 02:12:00,
2013-01-09 19:22:00,38.0,15.0,-100.00,SSW,205,4.0,8.0,38,-99.99,,,-99.99,,2013-01-10 02:22:00,
2013-01-09 19:32:00,40.0,14.0,-100.00,SW,230,8.0,10.0,35,-99.99,,,-99.99,,2013-01-10 02:32:00,
2013-01-09 19:42:00,40.0,14.0,-100.00,SW,230,8.0,10.0,35,-99.99,,,-99.99,,2013-01-10 02:42:00,
2013-01-09 19:52:00,40.0,14.0,-100.00,SW,230,8.0,10.0,35,-99.99,,,-99.99,,2013-01-10 02:52:00,
2013-01-09 20:02:00,41.0,12.0,-100.00,SSW,200,8.0,11.0,30,-99.99,,,-99.99,,2013-01-10 03:02:00,
2013-01-09 20:12:00,39.0,11.0,-100.00,South,185,4.0,10.0,31,-99.99,,,-99.99,,2013-01-10 03:12:00,
2013-01-09 20:22:00,34.0,9.0,-100.00,South,170,0.0,4.0,33,-99.99,,,-99.99,,2013-01-10 03:22:00,
2013-01-09 20:32:00,35.0,10.0,-100.00,ESE,115,6.0,6.0,34,-99.99,,,-99.99,,2013-01-10 03:32:00,
2013-01-09 20:42:00,34.0,10.0,-100.00,SE,145,3.0,8.0,37,-99.99,,,-99.99,,2013-01-10 03:42:00,
2013-01-09 20:52:00,34.0,11.0,-100.00,South,170,2.0,4.0,38,-99.99,,,-99.99,,2013-01-10 03:52:00,
2013-01-09 21:02:00,33.0,11.0,-100.00,ESE,120,2.0,3.0,39,-99.99,,,-99.99,,2013-01-10 04:02:00,
2013-01-09 21:12:00,34.0,11.0,-100.00,SSE,155,2.0,4.0,39,-99.99,,,-99.99,,2013-01-10 04:12:00,
2013-01-09 21:22:00,35.0,12.0,-100.00,SSE,155,4.0,8.0,37,-99.99,,,-99.99,,2013-01-10 04:22:00,
2013-01-09 21:32:00,34.0,11.0,-100.00,SSE,160,3.0,5.0,37,-99.99,,,-99.99,,2013-01-10 04:32:00,
2013-01-09 21:42:00,35.0,11.0,-100.00,South,180,4.0,6.0,36,-99.99,,,-99.99,,2013-01-10 04:42:00,
2013-01-09 21:52:00,34.0,10.0,-100.00,South,180,4.0,6.0,36,-99.99,,,-99.99,,2013-01-10 04:52:00,
2013-01-09 22:03:00,34.0,10.0,-100.00,South,175,4.0,6.0,36,-99.99,,,-99.99,,2013-01-10 05:03:00,
2013-01-09 22:12:00,34.0,10.0,-100.00,South,170,2.0,4.0,36,-99.99,,,-99.99,,2013-01-10 05:12:00,
2013-01-09 22:22:00,35.0,11.0,-100.00,SSW,205,4.0,7.0,36,-99.99,,,-99.99,,2013-01-10 05:22:00,
2013-01-09 22:33:00,35.0,10.0,-100.00,SSE,150,3.0,6.0,35,-99.99,,,-99.99,,2013-01-10 05:33:00,
2013-01-09 22:42:00,36.0,11.0,-100.00,SSW,195,4.0,6.0,34,-99.99,,,-99.99,,2013-01-10 05:42:00,
2013-01-09 22:52:00,39.0,12.0,-100.00,SSW,205,8.0,12.0,33,-99.99,,,-99.99,,2013-01-10 05:52:00,
2013-01-09 23:02:00,38.0,11.0,-100.00,SW,230,6.0,11.0,33,-99.99,,,-99.99,,2013-01-10 06:02:00,
2013-01-09 23:12:00,38.0,12.0,-100.00,SW,225,5.0,7.0,32,-99.99,,,-99.99,,2013-01-10 06:12:00,
2013-01-09 23:22:00,40.0,12.0,-100.00,WSW,255,4.0,6.0,31,-99.99,,,-99.99,,2013-01-10 06:22:00,
2013-01-09 23:32:00,41.0,12.0,-100.00,West,265,6.0,7.0,30,-99.99,,,-99.99,,2013-01-10 06:32:00,
2013-01-09 23:42:00,41.0,12.0,-100.00,West,280,7.0,9.0,29,-99.99,,,-99.99,,2013-01-10 06:42:00,
2013-01-09 23:52:00,39.0,10.0,-100.00,WNW,295,9.0,11.0,29,-99.99,,,-99.99,,2013-01-10 06:52:00,